sensor_id;sensor_type;location;lat;lon;timestamp;P1;durP1;ratioP1;P2;durP2;ratioP2
35634;SDS011;21757;43.610;1.440;2023-05-14T00:00:35;6.18;;;3.40;;
35634;SDS011;21757;43.610;1.440;2023-05-14T00:03:01;5.40;;;3.83;;
35634;SDS011;21757;43.610;1.440;2023-05-14T00:05:27;5.93;;;3.75;;
35634;SDS011;21757;43.610;1.440;2023-05-14T00:07:53;5.40;;;3.85;;
35634;SDS011;21757;43.610;1.440;2023-05-14T00:10:18;6.55;;;4.18;;
35634;SDS011;21757;43.610;1.440;2023-05-14T00:12:45;5.10;;;3.90;;
35634;SDS011;21757;43.610;1.440;2023-05-14T00:15:11;7.88;;;4.47;;
35634;SDS011;21757;43.610;1.440;2023-05-14T00:17:37;9.38;;;5.45;;
35634;SDS011;21757;43.610;1.440;2023-05-14T00:20:03;7.90;;;5.00;;
35634;SDS011;21757;43.610;1.440;2023-05-14T00:22:31;7.78;;;5.50;;
35634;SDS011;21757;43.610;1.440;2023-05-14T00:24:58;10.20;;;6.05;;
35634;SDS011;21757;43.610;1.440;2023-05-14T00:27:23;9.40;;;6.22;;
35634;SDS011;21757;43.610;1.440;2023-05-14T00:29:49;9.68;;;6.40;;
35634;SDS011;21757;43.610;1.440;2023-05-14T00:32:15;7.80;;;6.38;;
35634;SDS011;21757;43.610;1.440;2023-05-14T00:34:41;9.27;;;6.13;;
35634;SDS011;21757;43.610;1.440;2023-05-14T00:37:07;9.38;;;6.82;;
35634;SDS011;21757;43.610;1.440;2023-05-14T00:39:32;7.28;;;5.82;;
35634;SDS011;21757;43.610;1.440;2023-05-14T00:41:58;10.23;;;6.55;;
35634;SDS011;21757;43.610;1.440;2023-05-14T00:44:24;8.73;;;5.95;;
35634;SDS011;21757;43.610;1.440;2023-05-14T00:46:49;9.88;;;6.72;;
35634;SDS011;21757;43.610;1.440;2023-05-14T00:49:16;9.80;;;6.22;;
35634;SDS011;21757;43.610;1.440;2023-05-14T00:51:42;10.45;;;6.25;;
35634;SDS011;21757;43.610;1.440;2023-05-14T00:54:11;9.35;;;6.22;;
35634;SDS011;21757;43.610;1.440;2023-05-14T00:56:42;10.80;;;6.82;;
35634;SDS011;21757;43.610;1.440;2023-05-14T00:59:09;10.52;;;6.97;;
35634;SDS011;21757;43.610;1.440;2023-05-14T01:01:35;9.88;;;6.18;;
35634;SDS011;21757;43.610;1.440;2023-05-14T01:04:01;11.63;;;5.70;;
35634;SDS011;21757;43.610;1.440;2023-05-14T01:06:33;8.70;;;4.95;;
35634;SDS011;21757;43.610;1.440;2023-05-14T01:09:29;10.75;;;6.30;;
35634;SDS011;21757;43.610;1.440;2023-05-14T01:17:06;9.45;;;7.13;;
35634;SDS011;21757;43.610;1.440;2023-05-14T01:22:04;9.25;;;6.70;;
35634;SDS011;21757;43.610;1.440;2023-05-14T01:24:30;9.35;;;6.40;;
35634;SDS011;21757;43.610;1.440;2023-05-14T01:26:58;9.43;;;6.40;;
35634;SDS011;21757;43.610;1.440;2023-05-14T01:32:57;10.30;;;6.25;;
35634;SDS011;21757;43.610;1.440;2023-05-14T01:35:28;8.85;;;6.03;;
35634;SDS011;21757;43.610;1.440;2023-05-14T01:37:58;6.57;;;5.85;;
35634;SDS011;21757;43.610;1.440;2023-05-14T01:40:25;8.93;;;6.38;;
35634;SDS011;21757;43.610;1.440;2023-05-14T01:42:52;8.98;;;5.63;;
35634;SDS011;21757;43.610;1.440;2023-05-14T01:45:19;6.15;;;5.35;;
35634;SDS011;21757;43.610;1.440;2023-05-14T01:47:45;9.02;;;6.35;;
35634;SDS011;21757;43.610;1.440;2023-05-14T01:50:11;11.02;;;6.88;;
35634;SDS011;21757;43.610;1.440;2023-05-14T01:52:36;8.98;;;6.68;;
35634;SDS011;21757;43.610;1.440;2023-05-14T01:55:02;8.27;;;6.90;;
35634;SDS011;21757;43.610;1.440;2023-05-14T01:57:29;9.60;;;7.43;;
35634;SDS011;21757;43.610;1.440;2023-05-14T01:59:55;8.50;;;6.80;;
35634;SDS011;21757;43.610;1.440;2023-05-14T02:02:21;8.48;;;6.78;;
35634;SDS011;21757;43.610;1.440;2023-05-14T02:04:47;9.57;;;7.03;;
35634;SDS011;21757;43.610;1.440;2023-05-14T02:07:13;10.30;;;6.97;;
35634;SDS011;21757;43.610;1.440;2023-05-14T02:09:39;7.80;;;6.57;;
35634;SDS011;21757;43.610;1.440;2023-05-14T02:12:06;10.85;;;6.78;;
35634;SDS011;21757;43.610;1.440;2023-05-14T02:14:32;9.15;;;7.18;;
35634;SDS011;21757;43.610;1.440;2023-05-14T02:16:58;11.80;;;7.40;;
35634;SDS011;21757;43.610;1.440;2023-05-14T02:19:24;9.75;;;6.95;;
35634;SDS011;21757;43.610;1.440;2023-05-14T02:21:50;9.77;;;6.55;;
35634;SDS011;21757;43.610;1.440;2023-05-14T02:24:15;9.25;;;7.28;;
35634;SDS011;21757;43.610;1.440;2023-05-14T02:26:41;8.40;;;6.72;;
35634;SDS011;21757;43.610;1.440;2023-05-14T02:29:07;10.73;;;6.82;;
35634;SDS011;21757;43.610;1.440;2023-05-14T02:31:33;8.23;;;6.88;;
35634;SDS011;21757;43.610;1.440;2023-05-14T02:34:02;9.00;;;6.38;;
35634;SDS011;21757;43.610;1.440;2023-05-14T02:36:30;8.10;;;6.40;;
35634;SDS011;21757;43.610;1.440;2023-05-14T02:38:57;9.20;;;6.25;;
35634;SDS011;21757;43.610;1.440;2023-05-14T02:41:24;6.43;;;5.82;;
35634;SDS011;21757;43.610;1.440;2023-05-14T02:43:50;8.50;;;6.03;;
35634;SDS011;21757;43.610;1.440;2023-05-14T02:46:16;6.45;;;5.50;;
35634;SDS011;21757;43.610;1.440;2023-05-14T02:48:42;7.88;;;6.05;;
35634;SDS011;21757;43.610;1.440;2023-05-14T02:51:08;8.30;;;5.80;;
35634;SDS011;21757;43.610;1.440;2023-05-14T02:53:34;8.95;;;5.80;;
35634;SDS011;21757;43.610;1.440;2023-05-14T02:55:59;7.57;;;5.40;;
35634;SDS011;21757;43.610;1.440;2023-05-14T02:58:25;7.47;;;5.50;;
35634;SDS011;21757;43.610;1.440;2023-05-14T03:00:51;6.68;;;5.55;;
35634;SDS011;21757;43.610;1.440;2023-05-14T03:03:17;6.18;;;5.00;;
35634;SDS011;21757;43.610;1.440;2023-05-14T03:05:43;6.40;;;5.10;;
35634;SDS011;21757;43.610;1.440;2023-05-14T03:08:09;5.50;;;4.95;;
35634;SDS011;21757;43.610;1.440;2023-05-14T03:10:35;5.57;;;4.95;;
35634;SDS011;21757;43.610;1.440;2023-05-14T03:13:01;8.18;;;4.97;;
35634;SDS011;21757;43.610;1.440;2023-05-14T03:15:26;8.75;;;4.93;;
35634;SDS011;21757;43.610;1.440;2023-05-14T03:17:52;5.55;;;5.05;;
35634;SDS011;21757;43.610;1.440;2023-05-14T03:20:18;8.23;;;4.63;;
35634;SDS011;21757;43.610;1.440;2023-05-14T03:22:44;5.65;;;4.45;;
35634;SDS011;21757;43.610;1.440;2023-05-14T03:25:10;5.15;;;4.40;;
35634;SDS011;21757;43.610;1.440;2023-05-14T03:27:36;6.40;;;4.18;;
35634;SDS011;21757;43.610;1.440;2023-05-14T03:30:02;8.45;;;5.72;;
35634;SDS011;21757;43.610;1.440;2023-05-14T03:32:28;6.22;;;3.90;;
35634;SDS011;21757;43.610;1.440;2023-05-14T03:34:54;5.78;;;3.80;;
35634;SDS011;21757;43.610;1.440;2023-05-14T03:37:20;3.67;;;3.05;;
35634;SDS011;21757;43.610;1.440;2023-05-14T03:39:46;5.65;;;3.83;;
35634;SDS011;21757;43.610;1.440;2023-05-14T03:42:11;3.60;;;3.08;;
35634;SDS011;21757;43.610;1.440;2023-05-14T03:44:37;6.90;;;3.58;;
35634;SDS011;21757;43.610;1.440;2023-05-14T03:47:02;4.30;;;3.22;;
35634;SDS011;21757;43.610;1.440;2023-05-14T03:49:28;3.90;;;3.30;;
35634;SDS011;21757;43.610;1.440;2023-05-14T03:51:54;4.70;;;3.72;;
35634;SDS011;21757;43.610;1.440;2023-05-14T03:54:21;4.75;;;3.60;;
35634;SDS011;21757;43.610;1.440;2023-05-14T03:56:47;4.10;;;3.25;;
35634;SDS011;21757;43.610;1.440;2023-05-14T03:59:12;4.97;;;3.80;;
35634;SDS011;21757;43.610;1.440;2023-05-14T04:01:38;4.97;;;3.92;;
35634;SDS011;21757;43.610;1.440;2023-05-14T04:04:04;6.05;;;3.80;;
35634;SDS011;21757;43.610;1.440;2023-05-14T04:06:29;4.72;;;4.28;;
35634;SDS011;21757;43.610;1.440;2023-05-14T04:08:56;6.10;;;3.72;;
35634;SDS011;21757;43.610;1.440;2023-05-14T04:11:22;4.55;;;3.80;;
35634;SDS011;21757;43.610;1.440;2023-05-14T04:13:48;5.95;;;3.95;;
35634;SDS011;21757;43.610;1.440;2023-05-14T04:16:13;5.57;;;3.95;;
35634;SDS011;21757;43.610;1.440;2023-05-14T04:18:39;4.30;;;3.90;;
35634;SDS011;21757;43.610;1.440;2023-05-14T04:21:05;4.82;;;4.32;;
35634;SDS011;21757;43.610;1.440;2023-05-14T04:23:30;5.47;;;4.32;;
35634;SDS011;21757;43.610;1.440;2023-05-14T04:25:56;4.72;;;3.83;;
35634;SDS011;21757;43.610;1.440;2023-05-14T04:28:22;6.13;;;3.80;;
35634;SDS011;21757;43.610;1.440;2023-05-14T04:30:48;5.25;;;3.90;;
35634;SDS011;21757;43.610;1.440;2023-05-14T04:33:14;4.18;;;3.60;;
35634;SDS011;21757;43.610;1.440;2023-05-14T04:35:40;4.07;;;3.30;;
35634;SDS011;21757;43.610;1.440;2023-05-14T04:38:06;4.30;;;3.50;;
35634;SDS011;21757;43.610;1.440;2023-05-14T04:40:32;4.05;;;3.45;;
35634;SDS011;21757;43.610;1.440;2023-05-14T04:42:57;5.38;;;3.92;;
35634;SDS011;21757;43.610;1.440;2023-05-14T04:45:26;4.85;;;3.45;;
35634;SDS011;21757;43.610;1.440;2023-05-14T04:47:51;4.38;;;3.50;;
35634;SDS011;21757;43.610;1.440;2023-05-14T04:50:59;4.43;;;3.40;;
35634;SDS011;21757;43.610;1.440;2023-05-14T04:53:24;7.22;;;3.33;;
35634;SDS011;21757;43.610;1.440;2023-05-14T04:55:50;5.47;;;3.30;;
35634;SDS011;21757;43.610;1.440;2023-05-14T04:58:16;3.28;;;2.97;;
35634;SDS011;21757;43.610;1.440;2023-05-14T05:00:41;3.75;;;3.10;;
35634;SDS011;21757;43.610;1.440;2023-05-14T05:03:08;4.53;;;3.47;;
35634;SDS011;21757;43.610;1.440;2023-05-14T05:05:34;3.95;;;3.10;;
35634;SDS011;21757;43.610;1.440;2023-05-14T05:08:00;3.45;;;3.10;;
35634;SDS011;21757;43.610;1.440;2023-05-14T05:10:25;4.03;;;3.63;;
35634;SDS011;21757;43.610;1.440;2023-05-14T05:12:51;3.50;;;3.20;;
35634;SDS011;21757;43.610;1.440;2023-05-14T05:15:17;5.28;;;3.28;;
35634;SDS011;21757;43.610;1.440;2023-05-14T05:18:04;4.32;;;3.83;;
35634;SDS011;21757;43.610;1.440;2023-05-14T05:21:05;3.42;;;3.13;;
35634;SDS011;21757;43.610;1.440;2023-05-14T05:23:30;3.55;;;3.10;;
35634;SDS011;21757;43.610;1.440;2023-05-14T05:25:56;4.00;;;2.80;;
35634;SDS011;21757;43.610;1.440;2023-05-14T05:28:22;3.13;;;2.70;;
35634;SDS011;21757;43.610;1.440;2023-05-14T05:30:47;4.43;;;2.80;;
35634;SDS011;21757;43.610;1.440;2023-05-14T05:33:13;4.28;;;2.95;;
35634;SDS011;21757;43.610;1.440;2023-05-14T05:35:39;3.30;;;2.72;;
35634;SDS011;21757;43.610;1.440;2023-05-14T05:38:05;4.10;;;3.33;;
35634;SDS011;21757;43.610;1.440;2023-05-14T05:40:31;3.72;;;3.38;;
35634;SDS011;21757;43.610;1.440;2023-05-14T05:42:57;3.47;;;3.00;;
35634;SDS011;21757;43.610;1.440;2023-05-14T05:45:23;5.00;;;3.30;;
35634;SDS011;21757;43.610;1.440;2023-05-14T05:47:51;3.35;;;2.97;;
35634;SDS011;21757;43.610;1.440;2023-05-14T05:50:17;4.95;;;3.25;;
35634;SDS011;21757;43.610;1.440;2023-05-14T05:52:43;4.22;;;3.38;;
35634;SDS011;21757;43.610;1.440;2023-05-14T05:55:08;10.90;;;3.50;;
35634;SDS011;21757;43.610;1.440;2023-05-14T05:57:34;4.10;;;3.42;;
35634;SDS011;21757;43.610;1.440;2023-05-14T06:00:00;4.25;;;3.22;;
35634;SDS011;21757;43.610;1.440;2023-05-14T06:02:36;4.25;;;3.17;;
35634;SDS011;21757;43.610;1.440;2023-05-14T06:05:02;3.78;;;3.40;;
35634;SDS011;21757;43.610;1.440;2023-05-14T06:07:28;4.75;;;4.00;;
35634;SDS011;21757;43.610;1.440;2023-05-14T06:09:53;3.75;;;3.45;;
35634;SDS011;21757;43.610;1.440;2023-05-14T06:12:19;5.03;;;3.72;;
35634;SDS011;21757;43.610;1.440;2023-05-14T06:14:45;5.32;;;3.85;;
35634;SDS011;21757;43.610;1.440;2023-05-14T06:17:12;4.82;;;3.50;;
35634;SDS011;21757;43.610;1.440;2023-05-14T06:19:37;6.57;;;3.58;;
35634;SDS011;21757;43.610;1.440;2023-05-14T06:22:03;4.93;;;3.75;;
35634;SDS011;21757;43.610;1.440;2023-05-14T06:24:29;5.85;;;3.97;;
35634;SDS011;21757;43.610;1.440;2023-05-14T06:26:55;7.38;;;4.00;;
35634;SDS011;21757;43.610;1.440;2023-05-14T06:29:20;4.70;;;4.03;;
35634;SDS011;21757;43.610;1.440;2023-05-14T06:31:47;12.18;;;8.10;;
35634;SDS011;21757;43.610;1.440;2023-05-14T06:34:13;7.13;;;4.57;;
35634;SDS011;21757;43.610;1.440;2023-05-14T06:36:39;4.15;;;3.65;;
35634;SDS011;21757;43.610;1.440;2023-05-14T06:39:04;4.60;;;4.20;;
35634;SDS011;21757;43.610;1.440;2023-05-14T06:41:30;5.05;;;4.47;;
35634;SDS011;21757;43.610;1.440;2023-05-14T06:43:56;7.75;;;6.03;;
35634;SDS011;21757;43.610;1.440;2023-05-14T06:46:21;6.00;;;5.07;;
35634;SDS011;21757;43.610;1.440;2023-05-14T06:48:47;12.23;;;8.02;;
35634;SDS011;21757;43.610;1.440;2023-05-14T06:51:13;7.10;;;5.70;;
35634;SDS011;21757;43.610;1.440;2023-05-14T06:53:39;6.90;;;4.75;;
35634;SDS011;21757;43.610;1.440;2023-05-14T06:56:05;11.13;;;7.57;;
35634;SDS011;21757;43.610;1.440;2023-05-14T06:58:30;12.68;;;9.38;;
35634;SDS011;21757;43.610;1.440;2023-05-14T07:00:56;10.15;;;6.38;;
35634;SDS011;21757;43.610;1.440;2023-05-14T07:03:22;7.57;;;5.72;;
35634;SDS011;21757;43.610;1.440;2023-05-14T07:05:48;6.47;;;5.78;;
35634;SDS011;21757;43.610;1.440;2023-05-14T07:08:14;8.05;;;6.43;;
35634;SDS011;21757;43.610;1.440;2023-05-14T07:10:39;6.07;;;4.90;;
35634;SDS011;21757;43.610;1.440;2023-05-14T07:13:05;8.23;;;6.90;;
35634;SDS011;21757;43.610;1.440;2023-05-14T07:15:32;7.47;;;5.32;;
35634;SDS011;21757;43.610;1.440;2023-05-14T07:17:57;7.07;;;4.95;;
35634;SDS011;21757;43.610;1.440;2023-05-14T07:20:23;7.35;;;5.00;;
35634;SDS011;21757;43.610;1.440;2023-05-14T07:22:49;6.57;;;5.35;;
35634;SDS011;21757;43.610;1.440;2023-05-14T07:25:16;7.28;;;5.57;;
35634;SDS011;21757;43.610;1.440;2023-05-14T07:27:42;7.53;;;5.28;;
35634;SDS011;21757;43.610;1.440;2023-05-14T07:30:08;6.72;;;4.78;;
35634;SDS011;21757;43.610;1.440;2023-05-14T07:32:34;5.15;;;4.60;;
35634;SDS011;21757;43.610;1.440;2023-05-14T07:34:59;9.18;;;6.72;;
35634;SDS011;21757;43.610;1.440;2023-05-14T07:37:25;7.00;;;5.22;;
35634;SDS011;21757;43.610;1.440;2023-05-14T07:39:51;5.88;;;4.88;;
35634;SDS011;21757;43.610;1.440;2023-05-14T07:42:17;5.05;;;4.55;;
35634;SDS011;21757;43.610;1.440;2023-05-14T07:44:43;8.18;;;6.63;;
35634;SDS011;21757;43.610;1.440;2023-05-14T07:47:09;5.05;;;4.55;;
35634;SDS011;21757;43.610;1.440;2023-05-14T07:49:35;6.78;;;4.68;;
35634;SDS011;21757;43.610;1.440;2023-05-14T07:52:01;5.70;;;4.95;;
35634;SDS011;21757;43.610;1.440;2023-05-14T07:54:27;5.97;;;5.00;;
35634;SDS011;21757;43.610;1.440;2023-05-14T07:56:52;7.78;;;5.05;;
35634;SDS011;21757;43.610;1.440;2023-05-14T07:59:18;5.68;;;4.72;;
35634;SDS011;21757;43.610;1.440;2023-05-14T08:01:44;5.00;;;4.50;;
35634;SDS011;21757;43.610;1.440;2023-05-14T08:04:09;7.35;;;4.97;;
35634;SDS011;21757;43.610;1.440;2023-05-14T08:06:40;7.88;;;4.80;;
35634;SDS011;21757;43.610;1.440;2023-05-14T08:09:06;7.55;;;5.28;;
35634;SDS011;21757;43.610;1.440;2023-05-14T08:11:32;10.80;;;6.22;;
35634;SDS011;21757;43.610;1.440;2023-05-14T08:13:58;11.82;;;7.53;;
35634;SDS011;21757;43.610;1.440;2023-05-14T08:16:24;7.13;;;5.13;;
35634;SDS011;21757;43.610;1.440;2023-05-14T08:18:50;14.50;;;9.45;;
35634;SDS011;21757;43.610;1.440;2023-05-14T08:21:16;14.00;;;8.70;;
35634;SDS011;21757;43.610;1.440;2023-05-14T08:23:42;9.27;;;6.18;;
35634;SDS011;21757;43.610;1.440;2023-05-14T08:26:07;6.70;;;5.40;;
35634;SDS011;21757;43.610;1.440;2023-05-14T08:28:33;8.93;;;5.90;;
35634;SDS011;21757;43.610;1.440;2023-05-14T08:30:59;8.32;;;6.80;;
35634;SDS011;21757;43.610;1.440;2023-05-14T08:33:24;8.15;;;5.78;;
35634;SDS011;21757;43.610;1.440;2023-05-14T08:35:51;7.10;;;5.90;;
35634;SDS011;21757;43.610;1.440;2023-05-14T08:38:18;7.95;;;5.82;;
35634;SDS011;21757;43.610;1.440;2023-05-14T08:40:47;6.60;;;5.63;;
35634;SDS011;21757;43.610;1.440;2023-05-14T08:43:20;6.18;;;5.57;;
35634;SDS011;21757;43.610;1.440;2023-05-14T08:45:56;7.72;;;5.63;;
35634;SDS011;21757;43.610;1.440;2023-05-14T08:48:25;6.63;;;5.95;;
35634;SDS011;21757;43.610;1.440;2023-05-14T08:50:55;7.18;;;6.05;;
35634;SDS011;21757;43.610;1.440;2023-05-14T08:53:21;8.15;;;5.93;;
35634;SDS011;21757;43.610;1.440;2023-05-14T08:55:46;7.60;;;5.75;;
35634;SDS011;21757;43.610;1.440;2023-05-14T08:58:15;7.30;;;5.82;;
35634;SDS011;21757;43.610;1.440;2023-05-14T09:00:41;7.03;;;6.05;;
35634;SDS011;21757;43.610;1.440;2023-05-14T09:03:07;9.25;;;5.63;;
35634;SDS011;21757;43.610;1.440;2023-05-14T09:05:33;7.90;;;5.78;;
35634;SDS011;21757;43.610;1.440;2023-05-14T09:07:59;7.57;;;6.10;;
35634;SDS011;21757;43.610;1.440;2023-05-14T09:10:25;6.75;;;5.60;;
35634;SDS011;21757;43.610;1.440;2023-05-14T09:12:51;7.50;;;6.47;;
35634;SDS011;21757;43.610;1.440;2023-05-14T09:15:17;6.45;;;5.85;;
35634;SDS011;21757;43.610;1.440;2023-05-14T09:17:45;8.93;;;5.45;;
35634;SDS011;21757;43.610;1.440;2023-05-14T09:20:12;7.38;;;5.15;;
35634;SDS011;21757;43.610;1.440;2023-05-14T09:22:39;9.48;;;5.50;;
35634;SDS011;21757;43.610;1.440;2023-05-14T09:25:07;6.70;;;5.22;;
35634;SDS011;21757;43.610;1.440;2023-05-14T09:27:34;6.00;;;4.80;;
35634;SDS011;21757;43.610;1.440;2023-05-14T09:30:04;7.50;;;5.57;;
35634;SDS011;21757;43.610;1.440;2023-05-14T09:32:34;6.20;;;5.15;;
35634;SDS011;21757;43.610;1.440;2023-05-14T09:35:36;5.57;;;5.07;;
35634;SDS011;21757;43.610;1.440;2023-05-14T09:37:54;17.10;;;10.50;;
35634;SDS011;21757;43.610;1.440;2023-05-14T09:40:20;7.25;;;5.70;;
35634;SDS011;21757;43.610;1.440;2023-05-14T09:42:48;7.00;;;5.15;;
35634;SDS011;21757;43.610;1.440;2023-05-14T09:45:14;5.97;;;4.97;;
35634;SDS011;21757;43.610;1.440;2023-05-14T09:47:40;6.40;;;4.40;;
35634;SDS011;21757;43.610;1.440;2023-05-14T09:50:07;7.95;;;4.75;;
35634;SDS011;21757;43.610;1.440;2023-05-14T09:52:33;5.57;;;4.50;;
35634;SDS011;21757;43.610;1.440;2023-05-14T09:54:59;5.13;;;4.18;;
35634;SDS011;21757;43.610;1.440;2023-05-14T09:57:26;4.57;;;4.18;;
35634;SDS011;21757;43.610;1.440;2023-05-14T09:59:52;6.65;;;5.05;;
35634;SDS011;21757;43.610;1.440;2023-05-14T10:02:22;5.63;;;4.75;;
35634;SDS011;21757;43.610;1.440;2023-05-14T10:04:59;5.00;;;4.40;;
35634;SDS011;21757;43.610;1.440;2023-05-14T10:07:28;9.57;;;5.68;;
35634;SDS011;21757;43.610;1.440;2023-05-14T10:10:07;5.10;;;4.38;;
35634;SDS011;21757;43.610;1.440;2023-05-14T10:12:38;7.55;;;4.18;;
35634;SDS011;21757;43.610;1.440;2023-05-14T10:15:10;6.45;;;4.30;;
35634;SDS011;21757;43.610;1.440;2023-05-14T10:17:42;5.45;;;4.05;;
35634;SDS011;21757;43.610;1.440;2023-05-14T10:20:11;5.40;;;4.10;;
35634;SDS011;21757;43.610;1.440;2023-05-14T10:22:40;6.15;;;4.07;;
35634;SDS011;21757;43.610;1.440;2023-05-14T10:25:06;5.55;;;3.90;;
35634;SDS011;21757;43.610;1.440;2023-05-14T10:27:33;12.43;;;8.65;;
35634;SDS011;21757;43.610;1.440;2023-05-14T10:29:59;13.13;;;7.68;;
35634;SDS011;21757;43.610;1.440;2023-05-14T10:32:24;5.65;;;4.10;;
35634;SDS011;21757;43.610;1.440;2023-05-14T10:34:51;7.18;;;4.65;;
35634;SDS011;21757;43.610;1.440;2023-05-14T10:37:19;5.40;;;4.40;;
35634;SDS011;21757;43.610;1.440;2023-05-14T10:39:50;7.75;;;5.25;;
35634;SDS011;21757;43.610;1.440;2023-05-14T10:42:32;7.35;;;4.72;;
35634;SDS011;21757;43.610;1.440;2023-05-14T10:45:07;5.93;;;4.07;;
35634;SDS011;21757;43.610;1.440;2023-05-14T10:47:35;6.38;;;3.92;;
35634;SDS011;21757;43.610;1.440;2023-05-14T10:50:03;6.03;;;3.78;;
35634;SDS011;21757;43.610;1.440;2023-05-14T10:52:30;4.30;;;3.90;;
35634;SDS011;21757;43.610;1.440;2023-05-14T10:54:58;5.38;;;4.13;;
35634;SDS011;21757;43.610;1.440;2023-05-14T10:57:26;8.23;;;4.35;;
35634;SDS011;21757;43.610;1.440;2023-05-14T10:59:56;4.32;;;3.92;;
35634;SDS011;21757;43.610;1.440;2023-05-14T11:02:24;4.68;;;3.72;;
35634;SDS011;21757;43.610;1.440;2023-05-14T11:04:54;4.72;;;3.90;;
35634;SDS011;21757;43.610;1.440;2023-05-14T11:07:22;5.38;;;3.88;;
35634;SDS011;21757;43.610;1.440;2023-05-14T11:10:06;4.72;;;3.88;;
35634;SDS011;21757;43.610;1.440;2023-05-14T11:12:37;4.88;;;3.50;;
35634;SDS011;21757;43.610;1.440;2023-05-14T11:15:05;5.47;;;3.50;;
35634;SDS011;21757;43.610;1.440;2023-05-14T11:17:33;5.78;;;3.40;;
35634;SDS011;21757;43.610;1.440;2023-05-14T11:20:00;5.55;;;3.50;;
35634;SDS011;21757;43.610;1.440;2023-05-14T11:22:25;4.30;;;3.28;;
35634;SDS011;21757;43.610;1.440;2023-05-14T11:24:51;5.75;;;3.58;;
35634;SDS011;21757;43.610;1.440;2023-05-14T11:27:17;5.45;;;3.67;;
35634;SDS011;21757;43.610;1.440;2023-05-14T11:29:45;3.55;;;3.25;;
35634;SDS011;21757;43.610;1.440;2023-05-14T11:32:12;3.85;;;3.20;;
35634;SDS011;21757;43.610;1.440;2023-05-14T11:34:39;3.45;;;3.15;;
35634;SDS011;21757;43.610;1.440;2023-05-14T11:37:06;3.40;;;2.95;;
35634;SDS011;21757;43.610;1.440;2023-05-14T11:39:33;6.13;;;3.22;;
35634;SDS011;21757;43.610;1.440;2023-05-14T11:42:02;4.15;;;3.10;;
35634;SDS011;21757;43.610;1.440;2023-05-14T11:44:30;4.72;;;3.33;;
35634;SDS011;21757;43.610;1.440;2023-05-14T11:46:56;3.35;;;2.50;;
35634;SDS011;21757;43.610;1.440;2023-05-14T11:49:23;3.30;;;3.00;;
35634;SDS011;21757;43.610;1.440;2023-05-14T11:51:55;4.55;;;2.80;;
35634;SDS011;21757;43.610;1.440;2023-05-14T11:54:25;3.47;;;3.05;;
35634;SDS011;21757;43.610;1.440;2023-05-14T11:56:52;3.97;;;2.75;;
35634;SDS011;21757;43.610;1.440;2023-05-14T11:59:29;4.70;;;2.78;;
35634;SDS011;21757;43.610;1.440;2023-05-14T12:01:56;4.75;;;2.97;;
35634;SDS011;21757;43.610;1.440;2023-05-14T12:04:23;3.10;;;2.80;;
35634;SDS011;21757;43.610;1.440;2023-05-14T12:06:50;5.88;;;2.65;;
35634;SDS011;21757;43.610;1.440;2023-05-14T12:09:20;3.17;;;2.70;;
35634;SDS011;21757;43.610;1.440;2023-05-14T12:11:46;4.28;;;2.90;;
35634;SDS011;21757;43.610;1.440;2023-05-14T12:14:15;3.35;;;3.03;;
35634;SDS011;21757;43.610;1.440;2023-05-14T12:16:43;4.22;;;3.00;;
35634;SDS011;21757;43.610;1.440;2023-05-14T12:19:10;3.70;;;2.90;;
35634;SDS011;21757;43.610;1.440;2023-05-14T12:21:38;5.80;;;3.13;;
35634;SDS011;21757;43.610;1.440;2023-05-14T12:24:11;4.70;;;3.05;;
35634;SDS011;21757;43.610;1.440;2023-05-14T12:26:42;4.00;;;3.00;;
35634;SDS011;21757;43.610;1.440;2023-05-14T12:29:13;24.80;;;14.32;;
35634;SDS011;21757;43.610;1.440;2023-05-14T12:31:46;3.28;;;2.97;;
35634;SDS011;21757;43.610;1.440;2023-05-14T12:34:13;4.57;;;2.78;;
35634;SDS011;21757;43.610;1.440;2023-05-14T12:36:40;4.97;;;3.30;;
35634;SDS011;21757;43.610;1.440;2023-05-14T12:39:05;3.53;;;3.22;;
35634;SDS011;21757;43.610;1.440;2023-05-14T12:41:31;4.93;;;2.97;;
35634;SDS011;21757;43.610;1.440;2023-05-14T12:43:58;4.50;;;3.13;;
35634;SDS011;21757;43.610;1.440;2023-05-14T12:46:25;4.45;;;2.78;;
35634;SDS011;21757;43.610;1.440;2023-05-14T12:48:51;4.20;;;2.95;;
35634;SDS011;21757;43.610;1.440;2023-05-14T12:51:21;3.67;;;3.25;;
35634;SDS011;21757;43.610;1.440;2023-05-14T12:53:47;7.45;;;3.20;;
35634;SDS011;21757;43.610;1.440;2023-05-14T12:56:13;4.72;;;2.90;;
35634;SDS011;21757;43.610;1.440;2023-05-14T12:58:39;3.20;;;2.90;;
35634;SDS011;21757;43.610;1.440;2023-05-14T13:01:05;4.55;;;2.95;;
35634;SDS011;21757;43.610;1.440;2023-05-14T13:03:31;3.42;;;3.03;;
35634;SDS011;21757;43.610;1.440;2023-05-14T13:05:56;4.40;;;3.00;;
35634;SDS011;21757;43.610;1.440;2023-05-14T13:08:23;4.05;;;3.00;;
35634;SDS011;21757;43.610;1.440;2023-05-14T13:10:50;4.25;;;3.00;;
35634;SDS011;21757;43.610;1.440;2023-05-14T13:13:20;3.53;;;2.90;;
35634;SDS011;21757;43.610;1.440;2023-05-14T13:15:46;3.25;;;2.95;;
35634;SDS011;21757;43.610;1.440;2023-05-14T13:18:12;3.47;;;2.95;;
35634;SDS011;21757;43.610;1.440;2023-05-14T13:20:39;5.20;;;3.33;;
35634;SDS011;21757;43.610;1.440;2023-05-14T13:23:05;6.32;;;3.17;;
35634;SDS011;21757;43.610;1.440;2023-05-14T13:25:31;5.07;;;3.03;;
35634;SDS011;21757;43.610;1.440;2023-05-14T13:27:57;3.58;;;3.03;;
35634;SDS011;21757;43.610;1.440;2023-05-14T13:30:23;3.20;;;2.80;;
35634;SDS011;21757;43.610;1.440;2023-05-14T13:32:48;4.07;;;2.63;;
35634;SDS011;21757;43.610;1.440;2023-05-14T13:35:14;3.33;;;2.80;;
35634;SDS011;21757;43.610;1.440;2023-05-14T13:37:41;6.10;;;3.33;;
35634;SDS011;21757;43.610;1.440;2023-05-14T13:40:08;4.50;;;3.13;;
35634;SDS011;21757;43.610;1.440;2023-05-14T13:42:37;6.32;;;3.13;;
35634;SDS011;21757;43.610;1.440;2023-05-14T13:45:06;6.53;;;3.33;;
35634;SDS011;21757;43.610;1.440;2023-05-14T13:47:32;3.95;;;2.35;;
35634;SDS011;21757;43.610;1.440;2023-05-14T13:49:58;4.90;;;3.15;;
35634;SDS011;21757;43.610;1.440;2023-05-14T13:52:24;5.60;;;3.33;;
35634;SDS011;21757;43.610;1.440;2023-05-14T13:54:50;3.70;;;2.88;;
35634;SDS011;21757;43.610;1.440;2023-05-14T13:57:18;4.53;;;3.05;;
35634;SDS011;21757;43.610;1.440;2023-05-14T13:59:47;3.58;;;3.28;;
35634;SDS011;21757;43.610;1.440;2023-05-14T14:02:13;3.50;;;3.13;;
35634;SDS011;21757;43.610;1.440;2023-05-14T14:04:39;3.30;;;3.00;;
35634;SDS011;21757;43.610;1.440;2023-05-14T14:07:04;4.40;;;2.92;;
35634;SDS011;21757;43.610;1.440;2023-05-14T14:09:30;4.28;;;3.20;;
35634;SDS011;21757;43.610;1.440;2023-05-14T14:11:59;4.25;;;3.00;;
35634;SDS011;21757;43.610;1.440;2023-05-14T14:14:27;3.10;;;2.75;;
35634;SDS011;21757;43.610;1.440;2023-05-14T14:16:52;3.58;;;2.92;;
35634;SDS011;21757;43.610;1.440;2023-05-14T14:19:18;6.13;;;2.97;;
35634;SDS011;21757;43.610;1.440;2023-05-14T14:21:44;2.78;;;2.58;;
35634;SDS011;21757;43.610;1.440;2023-05-14T14:24:10;4.88;;;3.13;;
35634;SDS011;21757;43.610;1.440;2023-05-14T14:26:35;4.20;;;3.13;;
35634;SDS011;21757;43.610;1.440;2023-05-14T14:29:01;3.35;;;2.90;;
35634;SDS011;21757;43.610;1.440;2023-05-14T14:31:27;5.57;;;3.33;;
35634;SDS011;21757;43.610;1.440;2023-05-14T14:33:53;3.95;;;3.17;;
35634;SDS011;21757;43.610;1.440;2023-05-14T14:36:19;4.45;;;3.33;;
35634;SDS011;21757;43.610;1.440;2023-05-14T14:38:44;5.20;;;2.92;;
35634;SDS011;21757;43.610;1.440;2023-05-14T14:41:10;5.18;;;2.97;;
35634;SDS011;21757;43.610;1.440;2023-05-14T14:43:36;3.75;;;3.33;;
35634;SDS011;21757;43.610;1.440;2023-05-14T14:46:04;6.07;;;3.15;;
35634;SDS011;21757;43.610;1.440;2023-05-14T14:48:30;3.03;;;2.75;;
35634;SDS011;21757;43.610;1.440;2023-05-14T14:53:27;4.95;;;3.10;;
35634;SDS011;21757;43.610;1.440;2023-05-14T14:55:53;3.53;;;3.10;;
35634;SDS011;21757;43.610;1.440;2023-05-14T14:58:19;5.07;;;3.10;;